sensor_id;sensor_type;location;lat;lon;timestamp;P1;durP1;ratioP1;P2;durP2;ratioP2
38083;SDS011;23894;51.466;7.444;2024-02-26T00:01:46;4.35;;;1.75;;
38083;SDS011;23894;51.466;7.444;2024-02-26T00:03:47;3.70;;;1.67;;
38083;SDS011;23894;51.466;7.444;2024-02-26T00:05:48;3.70;;;1.60;;
38083;SDS011;23894;51.466;7.444;2024-02-26T00:07:49;3.57;;;1.70;;
38083;SDS011;23894;51.466;7.444;2024-02-26T00:09:50;5.13;;;1.80;;
38083;SDS011;23894;51.466;7.444;2024-02-26T00:11:51;5.03;;;1.65;;
38083;SDS011;23894;51.466;7.444;2024-02-26T00:13:52;3.60;;;1.50;;
38083;SDS011;23894;51.466;7.444;2024-02-26T00:15:53;4.10;;;1.67;;
38083;SDS011;23894;51.466;7.444;2024-02-26T00:17:53;3.03;;;1.50;;
38083;SDS011;23894;51.466;7.444;2024-02-26T00:19:54;3.22;;;1.52;;
38083;SDS011;23894;51.466;7.444;2024-02-26T00:21:55;4.37;;;1.53;;
38083;SDS011;23894;51.466;7.444;2024-02-26T00:23:56;3.35;;;1.50;;
38083;SDS011;23894;51.466;7.444;2024-02-26T00:25:57;4.53;;;1.70;;
38083;SDS011;23894;51.466;7.444;2024-02-26T00:27:58;3.75;;;1.75;;
38083;SDS011;23894;51.466;7.444;2024-02-26T00:29:59;3.63;;;1.67;;
38083;SDS011;23894;51.466;7.444;2024-02-26T00:32:00;4.78;;;1.58;;
38083;SDS011;23894;51.466;7.444;2024-02-26T00:34:01;6.05;;;1.80;;
38083;SDS011;23894;51.466;7.444;2024-02-26T00:36:02;4.00;;;1.88;;
38083;SDS011;23894;51.466;7.444;2024-02-26T00:38:03;4.05;;;1.67;;
38083;SDS011;23894;51.466;7.444;2024-02-26T00:40:05;3.17;;;1.60;;
38083;SDS011;23894;51.466;7.444;2024-02-26T00:42:06;3.67;;;1.60;;
38083;SDS011;23894;51.466;7.444;2024-02-26T00:44:07;4.72;;;1.50;;
38083;SDS011;23894;51.466;7.444;2024-02-26T00:46:08;3.47;;;1.80;;
38083;SDS011;23894;51.466;7.444;2024-02-26T00:48:09;4.93;;;1.63;;
38083;SDS011;23894;51.466;7.444;2024-02-26T00:50:10;3.72;;;1.80;;
38083;SDS011;23894;51.466;7.444;2024-02-26T00:52:11;3.55;;;1.80;;
38083;SDS011;23894;51.466;7.444;2024-02-26T00:54:12;4.30;;;1.90;;
38083;SDS011;23894;51.466;7.444;2024-02-26T00:56:13;3.17;;;1.58;;
38083;SDS011;23894;51.466;7.444;2024-02-26T00:58:14;4.10;;;1.80;;
38083;SDS011;23894;51.466;7.444;2024-02-26T01:00:15;4.03;;;1.70;;
38083;SDS011;23894;51.466;7.444;2024-02-26T01:02:16;4.63;;;1.83;;
38083;SDS011;23894;51.466;7.444;2024-02-26T01:04:17;4.90;;;1.75;;
38083;SDS011;23894;51.466;7.444;2024-02-26T01:06:18;3.53;;;1.80;;
38083;SDS011;23894;51.466;7.444;2024-02-26T01:08:19;3.72;;;1.50;;
38083;SDS011;23894;51.466;7.444;2024-02-26T01:10:20;3.97;;;1.90;;
38083;SDS011;23894;51.466;7.444;2024-02-26T01:12:21;3.80;;;1.80;;
38083;SDS011;23894;51.466;7.444;2024-02-26T01:14:22;4.30;;;1.80;;
38083;SDS011;23894;51.466;7.444;2024-02-26T01:16:23;3.88;;;2.05;;
38083;SDS011;23894;51.466;7.444;2024-02-26T01:18:24;3.97;;;1.83;;
38083;SDS011;23894;51.466;7.444;2024-02-26T01:20:25;4.20;;;1.80;;
38083;SDS011;23894;51.466;7.444;2024-02-26T01:22:26;4.25;;;1.92;;
38083;SDS011;23894;51.466;7.444;2024-02-26T01:24:27;4.53;;;1.75;;
38083;SDS011;23894;51.466;7.444;2024-02-26T01:26:28;4.10;;;1.60;;
38083;SDS011;23894;51.466;7.444;2024-02-26T01:28:29;3.90;;;1.90;;
38083;SDS011;23894;51.466;7.444;2024-02-26T01:30:30;3.67;;;1.67;;
38083;SDS011;23894;51.466;7.444;2024-02-26T01:32:31;3.97;;;1.75;;
38083;SDS011;23894;51.466;7.444;2024-02-26T01:34:32;3.10;;;1.45;;
38083;SDS011;23894;51.466;7.444;2024-02-26T01:36:33;4.70;;;1.75;;
38083;SDS011;23894;51.466;7.444;2024-02-26T01:38:34;3.20;;;1.40;;
38083;SDS011;23894;51.466;7.444;2024-02-26T01:40:35;4.30;;;1.88;;
38083;SDS011;23894;51.466;7.444;2024-02-26T01:42:39;3.92;;;1.77;;
38083;SDS011;23894;51.466;7.444;2024-02-26T01:44:41;3.25;;;1.40;;
38083;SDS011;23894;51.466;7.444;2024-02-26T01:46:42;4.10;;;1.75;;
38083;SDS011;23894;51.466;7.444;2024-02-26T01:48:43;4.10;;;1.85;;
38083;SDS011;23894;51.466;7.444;2024-02-26T01:50:47;4.38;;;1.85;;
38083;SDS011;23894;51.466;7.444;2024-02-26T01:52:48;4.07;;;1.70;;
38083;SDS011;23894;51.466;7.444;2024-02-26T01:54:50;4.03;;;2.00;;
38083;SDS011;23894;51.466;7.444;2024-02-26T01:56:51;3.90;;;1.60;;
38083;SDS011;23894;51.466;7.444;2024-02-26T01:58:52;4.00;;;1.70;;
38083;SDS011;23894;51.466;7.444;2024-02-26T02:00:53;4.13;;;1.67;;
38083;SDS011;23894;51.466;7.444;2024-02-26T02:02:54;4.03;;;1.67;;
38083;SDS011;23894;51.466;7.444;2024-02-26T02:04:55;4.05;;;1.52;;
38083;SDS011;23894;51.466;7.444;2024-02-26T02:06:57;3.40;;;1.80;;
38083;SDS011;23894;51.466;7.444;2024-02-26T02:08:58;3.10;;;1.50;;
38083;SDS011;23894;51.466;7.444;2024-02-26T02:11:06;4.00;;;1.92;;
38083;SDS011;23894;51.466;7.444;2024-02-26T02:13:07;3.88;;;1.73;;
38083;SDS011;23894;51.466;7.444;2024-02-26T02:15:08;3.83;;;1.73;;
38083;SDS011;23894;51.466;7.444;2024-02-26T02:17:09;3.70;;;1.57;;
38083;SDS011;23894;51.466;7.444;2024-02-26T02:19:10;5.30;;;1.83;;
38083;SDS011;23894;51.466;7.444;2024-02-26T02:21:11;4.27;;;1.50;;
38083;SDS011;23894;51.466;7.444;2024-02-26T02:23:12;3.70;;;1.80;;
38083;SDS011;23894;51.466;7.444;2024-02-26T02:25:14;3.58;;;1.63;;
38083;SDS011;23894;51.466;7.444;2024-02-26T02:27:15;3.88;;;1.63;;
38083;SDS011;23894;51.466;7.444;2024-02-26T02:29:16;3.47;;;1.60;;
38083;SDS011;23894;51.466;7.444;2024-02-26T02:31:17;4.13;;;1.75;;
38083;SDS011;23894;51.466;7.444;2024-02-26T02:33:18;3.78;;;1.70;;
38083;SDS011;23894;51.466;7.444;2024-02-26T02:35:19;3.30;;;1.67;;
38083;SDS011;23894;51.466;7.444;2024-02-26T02:37:20;3.67;;;1.60;;
38083;SDS011;23894;51.466;7.444;2024-02-26T02:39:21;3.17;;;1.50;;
38083;SDS011;23894;51.466;7.444;2024-02-26T02:41:22;3.63;;;1.70;;
38083;SDS011;23894;51.466;7.444;2024-02-26T02:43:23;3.58;;;1.70;;
38083;SDS011;23894;51.466;7.444;2024-02-26T02:45:24;3.85;;;1.90;;
38083;SDS011;23894;51.466;7.444;2024-02-26T02:47:25;4.82;;;1.67;;
38083;SDS011;23894;51.466;7.444;2024-02-26T02:49:25;3.33;;;1.70;;
38083;SDS011;23894;51.466;7.444;2024-02-26T02:51:26;3.53;;;1.73;;
38083;SDS011;23894;51.466;7.444;2024-02-26T02:53:28;3.90;;;1.88;;
38083;SDS011;23894;51.466;7.444;2024-02-26T02:55:28;4.72;;;1.92;;
38083;SDS011;23894;51.466;7.444;2024-02-26T02:57:30;3.25;;;1.65;;
38083;SDS011;23894;51.466;7.444;2024-02-26T02:59:31;3.70;;;1.70;;
38083;SDS011;23894;51.466;7.444;2024-02-26T03:01:32;3.45;;;1.70;;
38083;SDS011;23894;51.466;7.444;2024-02-26T03:03:33;4.30;;;1.90;;
38083;SDS011;23894;51.466;7.444;2024-02-26T03:05:34;4.07;;;1.75;;
38083;SDS011;23894;51.466;7.444;2024-02-26T03:07:35;3.22;;;1.55;;
38083;SDS011;23894;51.466;7.444;2024-02-26T03:09:36;3.60;;;2.00;;
38083;SDS011;23894;51.466;7.444;2024-02-26T03:11:37;4.10;;;1.90;;
38083;SDS011;23894;51.466;7.444;2024-02-26T03:13:38;6.15;;;2.10;;
38083;SDS011;23894;51.466;7.444;2024-02-26T03:15:39;4.20;;;1.90;;
38083;SDS011;23894;51.466;7.444;2024-02-26T03:17:40;3.58;;;1.75;;
38083;SDS011;23894;51.466;7.444;2024-02-26T03:19:43;3.92;;;2.00;;
38083;SDS011;23894;51.466;7.444;2024-02-26T03:21:46;3.90;;;2.05;;
38083;SDS011;23894;51.466;7.444;2024-02-26T03:23:47;6.07;;;2.00;;
38083;SDS011;23894;51.466;7.444;2024-02-26T03:25:48;4.13;;;1.80;;
38083;SDS011;23894;51.466;7.444;2024-02-26T03:27:49;5.43;;;1.80;;
38083;SDS011;23894;51.466;7.444;2024-02-26T03:29:50;3.85;;;1.90;;
38083;SDS011;23894;51.466;7.444;2024-02-26T03:31:52;3.65;;;1.60;;
38083;SDS011;23894;51.466;7.444;2024-02-26T03:33:53;3.75;;;1.70;;
38083;SDS011;23894;51.466;7.444;2024-02-26T03:35:54;4.05;;;2.00;;
38083;SDS011;23894;51.466;7.444;2024-02-26T03:37:55;4.20;;;1.95;;
38083;SDS011;23894;51.466;7.444;2024-02-26T03:39:56;4.15;;;2.00;;
38083;SDS011;23894;51.466;7.444;2024-02-26T03:41:57;4.20;;;1.85;;
38083;SDS011;23894;51.466;7.444;2024-02-26T03:43:58;6.38;;;2.38;;
38083;SDS011;23894;51.466;7.444;2024-02-26T03:45:59;4.25;;;1.80;;
38083;SDS011;23894;51.466;7.444;2024-02-26T03:48:01;4.65;;;2.13;;
38083;SDS011;23894;51.466;7.444;2024-02-26T03:50:02;3.78;;;1.80;;
38083;SDS011;23894;51.466;7.444;2024-02-26T03:52:04;5.10;;;2.20;;
38083;SDS011;23894;51.466;7.444;2024-02-26T03:54:05;3.83;;;1.73;;
38083;SDS011;23894;51.466;7.444;2024-02-26T03:56:06;4.75;;;2.20;;
38083;SDS011;23894;51.466;7.444;2024-02-26T03:58:07;5.43;;;2.05;;
38083;SDS011;23894;51.466;7.444;2024-02-26T04:00:09;4.10;;;2.00;;
38083;SDS011;23894;51.466;7.444;2024-02-26T04:02:10;4.13;;;2.00;;
38083;SDS011;23894;51.466;7.444;2024-02-26T04:04:11;4.85;;;1.92;;
38083;SDS011;23894;51.466;7.444;2024-02-26T04:06:12;3.35;;;1.80;;
38083;SDS011;23894;51.466;7.444;2024-02-26T04:08:19;4.05;;;1.98;;
38083;SDS011;23894;51.466;7.444;2024-02-26T04:10:20;3.97;;;1.90;;
38083;SDS011;23894;51.466;7.444;2024-02-26T04:12:22;3.55;;;2.00;;
38083;SDS011;23894;51.466;7.444;2024-02-26T04:14:22;6.40;;;2.10;;
38083;SDS011;23894;51.466;7.444;2024-02-26T04:16:23;4.95;;;2.00;;
38083;SDS011;23894;51.466;7.444;2024-02-26T04:18:25;4.20;;;2.10;;
38083;SDS011;23894;51.466;7.444;2024-02-26T04:20:26;4.30;;;2.27;;
38083;SDS011;23894;51.466;7.444;2024-02-26T04:22:27;4.03;;;1.90;;
38083;SDS011;23894;51.466;7.444;2024-02-26T04:24:28;3.95;;;2.10;;
38083;SDS011;23894;51.466;7.444;2024-02-26T04:26:29;5.03;;;2.30;;
38083;SDS011;23894;51.466;7.444;2024-02-26T04:28:30;4.75;;;2.30;;
38083;SDS011;23894;51.466;7.444;2024-02-26T04:30:31;3.97;;;2.30;;
38083;SDS011;23894;51.466;7.444;2024-02-26T04:32:32;4.20;;;2.10;;
38083;SDS011;23894;51.466;7.444;2024-02-26T04:34:34;5.55;;;2.10;;
38083;SDS011;23894;51.466;7.444;2024-02-26T04:36:35;4.22;;;1.80;;
38083;SDS011;23894;51.466;7.444;2024-02-26T04:38:36;3.72;;;1.80;;
38083;SDS011;23894;51.466;7.444;2024-02-26T04:40:37;4.93;;;2.00;;
38083;SDS011;23894;51.466;7.444;2024-02-26T04:42:38;4.73;;;1.80;;
38083;SDS011;23894;51.466;7.444;2024-02-26T04:44:39;5.50;;;1.90;;
38083;SDS011;23894;51.466;7.444;2024-02-26T04:46:40;3.88;;;1.80;;
38083;SDS011;23894;51.466;7.444;2024-02-26T04:48:41;3.50;;;1.85;;
38083;SDS011;23894;51.466;7.444;2024-02-26T04:50:42;4.20;;;2.08;;
38083;SDS011;23894;51.466;7.444;2024-02-26T04:52:43;4.22;;;1.80;;
38083;SDS011;23894;51.466;7.444;2024-02-26T04:54:43;4.75;;;2.10;;
38083;SDS011;23894;51.466;7.444;2024-02-26T04:56:44;4.68;;;2.17;;
38083;SDS011;23894;51.466;7.444;2024-02-26T04:58:46;5.05;;;2.20;;
38083;SDS011;23894;51.466;7.444;2024-02-26T05:00:46;3.67;;;1.95;;
38083;SDS011;23894;51.466;7.444;2024-02-26T05:02:47;3.67;;;1.63;;
38083;SDS011;23894;51.466;7.444;2024-02-26T05:04:48;3.97;;;1.70;;
38083;SDS011;23894;51.466;7.444;2024-02-26T05:06:49;3.60;;;1.80;;
38083;SDS011;23894;51.466;7.444;2024-02-26T05:08:50;4.57;;;1.93;;
38083;SDS011;23894;51.466;7.444;2024-02-26T05:10:52;4.47;;;2.00;;
38083;SDS011;23894;51.466;7.444;2024-02-26T05:12:52;4.70;;;2.10;;
38083;SDS011;23894;51.466;7.444;2024-02-26T05:14:53;5.03;;;1.92;;
38083;SDS011;23894;51.466;7.444;2024-02-26T05:16:54;5.82;;;2.20;;
38083;SDS011;23894;51.466;7.444;2024-02-26T05:18:56;4.13;;;2.00;;
38083;SDS011;23894;51.466;7.444;2024-02-26T05:20:57;3.77;;;1.97;;
38083;SDS011;23894;51.466;7.444;2024-02-26T05:22:58;4.90;;;1.90;;
38083;SDS011;23894;51.466;7.444;2024-02-26T05:24:59;4.80;;;2.28;;
38083;SDS011;23894;51.466;7.444;2024-02-26T05:27:00;4.78;;;2.15;;
38083;SDS011;23894;51.466;7.444;2024-02-26T05:29:01;3.58;;;1.90;;
38083;SDS011;23894;51.466;7.444;2024-02-26T05:31:02;5.18;;;2.00;;
38083;SDS011;23894;51.466;7.444;2024-02-26T05:33:03;3.70;;;1.93;;
38083;SDS011;23894;51.466;7.444;2024-02-26T05:35:04;4.30;;;1.90;;
38083;SDS011;23894;51.466;7.444;2024-02-26T05:37:05;3.63;;;1.80;;
38083;SDS011;23894;51.466;7.444;2024-02-26T05:39:07;3.30;;;1.70;;
38083;SDS011;23894;51.466;7.444;2024-02-26T05:41:11;4.65;;;2.00;;
38083;SDS011;23894;51.466;7.444;2024-02-26T05:43:11;4.82;;;2.33;;
38083;SDS011;23894;51.466;7.444;2024-02-26T05:45:15;4.03;;;2.00;;
38083;SDS011;23894;51.466;7.444;2024-02-26T05:47:16;5.03;;;2.20;;
38083;SDS011;23894;51.466;7.444;2024-02-26T05:49:17;4.10;;;1.98;;
38083;SDS011;23894;51.466;7.444;2024-02-26T05:51:18;4.53;;;2.15;;
38083;SDS011;23894;51.466;7.444;2024-02-26T05:53:19;3.58;;;1.98;;
38083;SDS011;23894;51.466;7.444;2024-02-26T05:55:20;3.58;;;1.88;;
38083;SDS011;23894;51.466;7.444;2024-02-26T05:57:21;3.92;;;1.95;;
38083;SDS011;23894;51.466;7.444;2024-02-26T05:59:22;3.63;;;1.90;;
38083;SDS011;23894;51.466;7.444;2024-02-26T06:01:23;4.32;;;1.80;;
38083;SDS011;23894;51.466;7.444;2024-02-26T06:03:26;4.47;;;1.88;;
38083;SDS011;23894;51.466;7.444;2024-02-26T06:05:27;4.35;;;1.70;;
38083;SDS011;23894;51.466;7.444;2024-02-26T06:07:28;4.05;;;2.00;;
38083;SDS011;23894;51.466;7.444;2024-02-26T06:09:28;4.18;;;2.03;;
38083;SDS011;23894;51.466;7.444;2024-02-26T06:11:29;5.40;;;2.05;;
38083;SDS011;23894;51.466;7.444;2024-02-26T06:13:30;5.47;;;2.20;;
38083;SDS011;23894;51.466;7.444;2024-02-26T06:15:31;4.05;;;1.80;;
38083;SDS011;23894;51.466;7.444;2024-02-26T06:17:32;3.90;;;2.00;;
38083;SDS011;23894;51.466;7.444;2024-02-26T06:19:34;4.38;;;1.77;;
38083;SDS011;23894;51.466;7.444;2024-02-26T06:21:34;3.88;;;1.88;;
38083;SDS011;23894;51.466;7.444;2024-02-26T06:23:35;4.88;;;2.08;;
38083;SDS011;23894;51.466;7.444;2024-02-26T06:25:36;4.10;;;1.90;;
38083;SDS011;23894;51.466;7.444;2024-02-26T06:27:37;3.90;;;1.93;;
38083;SDS011;23894;51.466;7.444;2024-02-26T06:29:38;4.00;;;1.95;;
38083;SDS011;23894;51.466;7.444;2024-02-26T06:31:39;4.30;;;2.17;;
38083;SDS011;23894;51.466;7.444;2024-02-26T06:33:40;3.55;;;1.73;;
38083;SDS011;23894;51.466;7.444;2024-02-26T06:35:41;4.88;;;2.40;;
38083;SDS011;23894;51.466;7.444;2024-02-26T06:37:42;4.88;;;1.80;;
38083;SDS011;23894;51.466;7.444;2024-02-26T06:39:43;4.57;;;2.13;;
38083;SDS011;23894;51.466;7.444;2024-02-26T06:41:44;4.72;;;2.10;;
38083;SDS011;23894;51.466;7.444;2024-02-26T06:43:46;4.05;;;2.00;;
38083;SDS011;23894;51.466;7.444;2024-02-26T06:45:48;4.35;;;2.10;;
38083;SDS011;23894;51.466;7.444;2024-02-26T06:47:49;4.22;;;1.98;;
38083;SDS011;23894;51.466;7.444;2024-02-26T06:49:50;5.47;;;2.05;;
38083;SDS011;23894;51.466;7.444;2024-02-26T06:51:51;5.07;;;2.30;;
38083;SDS011;23894;51.466;7.444;2024-02-26T06:53:52;5.13;;;2.20;;
38083;SDS011;23894;51.466;7.444;2024-02-26T06:55:53;4.18;;;2.22;;
38083;SDS011;23894;51.466;7.444;2024-02-26T06:57:54;4.55;;;2.22;;
38083;SDS011;23894;51.466;7.444;2024-02-26T06:59:55;4.03;;;2.00;;
38083;SDS011;23894;51.466;7.444;2024-02-26T07:01:56;4.32;;;2.33;;
38083;SDS011;23894;51.466;7.444;2024-02-26T07:03:57;4.70;;;2.22;;
38083;SDS011;23894;51.466;7.444;2024-02-26T07:05:58;5.28;;;2.38;;
38083;SDS011;23894;51.466;7.444;2024-02-26T07:07:59;4.45;;;2.20;;
38083;SDS011;23894;51.466;7.444;2024-02-26T07:10:00;6.32;;;2.08;;
38083;SDS011;23894;51.466;7.444;2024-02-26T07:12:03;5.43;;;2.30;;
38083;SDS011;23894;51.466;7.444;2024-02-26T07:14:04;4.43;;;2.20;;
38083;SDS011;23894;51.466;7.444;2024-02-26T07:16:05;3.92;;;2.08;;
38083;SDS011;23894;51.466;7.444;2024-02-26T07:18:06;5.55;;;2.40;;
38083;SDS011;23894;51.466;7.444;2024-02-26T07:20:08;5.78;;;2.30;;
38083;SDS011;23894;51.466;7.444;2024-02-26T07:22:09;4.22;;;2.25;;
38083;SDS011;23894;51.466;7.444;2024-02-26T07:24:10;5.80;;;2.47;;
38083;SDS011;23894;51.466;7.444;2024-02-26T07:26:11;4.35;;;2.10;;
38083;SDS011;23894;51.466;7.444;2024-02-26T07:28:12;5.80;;;2.50;;
38083;SDS011;23894;51.466;7.444;2024-02-26T07:30:13;7.18;;;2.47;;
38083;SDS011;23894;51.466;7.444;2024-02-26T07:32:15;5.82;;;2.90;;
38083;SDS011;23894;51.466;7.444;2024-02-26T07:34:16;4.93;;;2.30;;
38083;SDS011;23894;51.466;7.444;2024-02-26T07:36:17;4.63;;;2.15;;
38083;SDS011;23894;51.466;7.444;2024-02-26T07:38:18;5.50;;;2.72;;
38083;SDS011;23894;51.466;7.444;2024-02-26T07:40:19;5.00;;;2.67;;
38083;SDS011;23894;51.466;7.444;2024-02-26T07:42:20;5.30;;;2.45;;
38083;SDS011;23894;51.466;7.444;2024-02-26T07:44:21;5.20;;;2.42;;
38083;SDS011;23894;51.466;7.444;2024-02-26T07:46:22;6.05;;;2.40;;
38083;SDS011;23894;51.466;7.444;2024-02-26T07:48:23;4.32;;;2.20;;
38083;SDS011;23894;51.466;7.444;2024-02-26T07:50:24;4.20;;;2.25;;
38083;SDS011;23894;51.466;7.444;2024-02-26T07:52:25;5.68;;;2.67;;
38083;SDS011;23894;51.466;7.444;2024-02-26T07:54:26;5.75;;;2.50;;
38083;SDS011;23894;51.466;7.444;2024-02-26T07:56:27;5.50;;;2.30;;
38083;SDS011;23894;51.466;7.444;2024-02-26T07:58:28;5.38;;;2.72;;
38083;SDS011;23894;51.466;7.444;2024-02-26T08:00:29;5.17;;;2.57;;
38083;SDS011;23894;51.466;7.444;2024-02-26T08:02:30;4.90;;;2.20;;
38083;SDS011;23894;51.466;7.444;2024-02-26T08:04:31;5.90;;;2.40;;
38083;SDS011;23894;51.466;7.444;2024-02-26T08:06:31;5.25;;;2.50;;
38083;SDS011;23894;51.466;7.444;2024-02-26T08:08:32;7.10;;;2.30;;
38083;SDS011;23894;51.466;7.444;2024-02-26T08:10:33;5.15;;;2.45;;
38083;SDS011;23894;51.466;7.444;2024-02-26T08:12:34;4.80;;;2.40;;
38083;SDS011;23894;51.466;7.444;2024-02-26T08:14:35;6.23;;;2.60;;
38083;SDS011;23894;51.466;7.444;2024-02-26T08:16:36;4.90;;;2.40;;
38083;SDS011;23894;51.466;7.444;2024-02-26T08:18:37;5.45;;;2.60;;
38083;SDS011;23894;51.466;7.444;2024-02-26T08:20:38;5.63;;;2.67;;
38083;SDS011;23894;51.466;7.444;2024-02-26T08:22:39;5.05;;;2.47;;
38083;SDS011;23894;51.466;7.444;2024-02-26T08:24:40;5.97;;;2.60;;
38083;SDS011;23894;51.466;7.444;2024-02-26T08:26:41;4.80;;;2.40;;
38083;SDS011;23894;51.466;7.444;2024-02-26T08:28:42;5.68;;;2.63;;
38083;SDS011;23894;51.466;7.444;2024-02-26T08:30:44;7.10;;;2.63;;
38083;SDS011;23894;51.466;7.444;2024-02-26T08:32:45;8.45;;;3.10;;
38083;SDS011;23894;51.466;7.444;2024-02-26T08:34:46;5.30;;;2.60;;
38083;SDS011;23894;51.466;7.444;2024-02-26T08:36:47;4.97;;;2.80;;
38083;SDS011;23894;51.466;7.444;2024-02-26T08:38:49;5.95;;;2.85;;
38083;SDS011;23894;51.466;7.444;2024-02-26T08:40:50;6.13;;;2.85;;
38083;SDS011;23894;51.466;7.444;2024-02-26T08:42:50;4.80;;;2.70;;
38083;SDS011;23894;51.466;7.444;2024-02-26T08:44:51;5.40;;;2.85;;
38083;SDS011;23894;51.466;7.444;2024-02-26T08:46:54;5.45;;;2.47;;
38083;SDS011;23894;51.466;7.444;2024-02-26T08:48:55;5.30;;;2.78;;
38083;SDS011;23894;51.466;7.444;2024-02-26T08:50:56;5.93;;;2.93;;
38083;SDS011;23894;51.466;7.444;2024-02-26T08:52:57;5.70;;;2.80;;
38083;SDS011;23894;51.466;7.444;2024-02-26T08:54:58;5.32;;;2.83;;
38083;SDS011;23894;51.466;7.444;2024-02-26T08:56:59;5.37;;;2.70;;
38083;SDS011;23894;51.466;7.444;2024-02-26T08:59:00;5.80;;;2.80;;
38083;SDS011;23894;51.466;7.444;2024-02-26T09:01:03;5.80;;;2.50;;
38083;SDS011;23894;51.466;7.444;2024-02-26T09:03:04;5.93;;;3.00;;
38083;SDS011;23894;51.466;7.444;2024-02-26T09:05:05;4.78;;;3.03;;
38083;SDS011;23894;51.466;7.444;2024-02-26T09:07:06;5.22;;;2.95;;
38083;SDS011;23894;51.466;7.444;2024-02-26T09:09:07;5.25;;;2.70;;
38083;SDS011;23894;51.466;7.444;2024-02-26T09:11:08;5.60;;;2.65;;
38083;SDS011;23894;51.466;7.444;2024-02-26T09:13:10;6.40;;;2.88;;
38083;SDS011;23894;51.466;7.444;2024-02-26T09:15:11;6.28;;;2.88;;
38083;SDS011;23894;51.466;7.444;2024-02-26T09:17:12;5.10;;;2.92;;
38083;SDS011;23894;51.466;7.444;2024-02-26T09:19:14;5.55;;;2.60;;
38083;SDS011;23894;51.466;7.444;2024-02-26T09:21:15;8.17;;;3.10;;
38083;SDS011;23894;51.466;7.444;2024-02-26T09:23:22;6.40;;;3.08;;
38083;SDS011;23894;51.466;7.444;2024-02-26T09:25:23;6.13;;;2.75;;
38083;SDS011;23894;51.466;7.444;2024-02-26T09:27:24;5.43;;;2.85;;
38083;SDS011;23894;51.466;7.444;2024-02-26T09:29:25;5.32;;;2.97;;
38083;SDS011;23894;51.466;7.444;2024-02-26T09:31:27;5.75;;;3.05;;
38083;SDS011;23894;51.466;7.444;2024-02-26T09:33:28;6.45;;;3.00;;
38083;SDS011;23894;51.466;7.444;2024-02-26T09:35:29;4.97;;;2.67;;
38083;SDS011;23894;51.466;7.444;2024-02-26T09:37:30;6.82;;;3.17;;
38083;SDS011;23894;51.466;7.444;2024-02-26T09:39:31;5.93;;;3.08;;
38083;SDS011;23894;51.466;7.444;2024-02-26T09:41:32;5.25;;;3.20;;
38083;SDS011;23894;51.466;7.444;2024-02-26T09:43:36;5.75;;;3.20;;
38083;SDS011;23894;51.466;7.444;2024-02-26T09:45:39;5.38;;;3.08;;
38083;SDS011;23894;51.466;7.444;2024-02-26T09:47:40;5.45;;;3.10;;
38083;SDS011;23894;51.466;7.444;2024-02-26T09:49:42;6.72;;;3.13;;
38083;SDS011;23894;51.466;7.444;2024-02-26T09:51:43;6.30;;;3.20;;
38083;SDS011;23894;51.466;7.444;2024-02-26T09:53:44;6.00;;;3.28;;
38083;SDS011;23894;51.466;7.444;2024-02-26T09:55:47;6.97;;;3.20;;
38083;SDS011;23894;51.466;7.444;2024-02-26T09:57:48;6.00;;;3.08;;
38083;SDS011;23894;51.466;7.444;2024-02-26T09:59:53;7.40;;;3.20;;
38083;SDS011;23894;51.466;7.444;2024-02-26T10:01:54;5.80;;;3.20;;
38083;SDS011;23894;51.466;7.444;2024-02-26T10:03:56;6.97;;;3.42;;
38083;SDS011;23894;51.466;7.444;2024-02-26T10:05:58;6.43;;;3.45;;
38083;SDS011;23894;51.466;7.444;2024-02-26T10:07:59;7.22;;;3.35;;
38083;SDS011;23894;51.466;7.444;2024-02-26T10:10:01;6.13;;;3.30;;
38083;SDS011;23894;51.466;7.444;2024-02-26T10:12:02;6.00;;;3.22;;
38083;SDS011;23894;51.466;7.444;2024-02-26T10:14:04;7.07;;;3.58;;
38083;SDS011;23894;51.466;7.444;2024-02-26T10:16:05;6.75;;;3.33;;
38083;SDS011;23894;51.466;7.444;2024-02-26T10:18:06;7.20;;;3.38;;
38083;SDS011;23894;51.466;7.444;2024-02-26T10:20:14;5.85;;;3.38;;
38083;SDS011;23894;51.466;7.444;2024-02-26T10:22:16;6.80;;;3.40;;
38083;SDS011;23894;51.466;7.444;2024-02-26T10:24:17;5.97;;;3.33;;
38083;SDS011;23894;51.466;7.444;2024-02-26T10:26:18;6.53;;;3.47;;
38083;SDS011;23894;51.466;7.444;2024-02-26T10:28:19;6.25;;;3.45;;
38083;SDS011;23894;51.466;7.444;2024-02-26T10:30:21;5.82;;;3.30;;
38083;SDS011;23894;51.466;7.444;2024-02-26T10:32:22;6.35;;;3.40;;
38083;SDS011;23894;51.466;7.444;2024-02-26T10:34:23;5.77;;;3.07;;
38083;SDS011;23894;51.466;7.444;2024-02-26T10:36:25;7.38;;;3.53;;
38083;SDS011;23894;51.466;7.444;2024-02-26T10:38:27;6.00;;;3.42;;
38083;SDS011;23894;51.466;7.444;2024-02-26T10:40:27;6.68;;;3.55;;
38083;SDS011;23894;51.466;7.444;2024-02-26T10:42:30;6.70;;;3.50;;
38083;SDS011;23894;51.466;7.444;2024-02-26T10:44:31;8.93;;;4.03;;
38083;SDS011;23894;51.466;7.444;2024-02-26T10:46:32;7.60;;;3.67;;
38083;SDS011;23894;51.466;7.444;2024-02-26T10:48:33;6.03;;;3.63;;
38083;SDS011;23894;51.466;7.444;2024-02-26T10:50:33;8.57;;;4.13;;
38083;SDS011;23894;51.466;7.444;2024-02-26T10:52:35;7.28;;;3.88;;
38083;SDS011;23894;51.466;7.444;2024-02-26T10:54:36;7.72;;;3.75;;
38083;SDS011;23894;51.466;7.444;2024-02-26T10:56:40;7.82;;;3.70;;
38083;SDS011;23894;51.466;7.444;2024-02-26T10:58:43;7.60;;;4.50;;
38083;SDS011;23894;51.466;7.444;2024-02-26T11:00:46;6.90;;;3.97;;
38083;SDS011;23894;51.466;7.444;2024-02-26T11:02:47;8.95;;;4.40;;
38083;SDS011;23894;51.466;7.444;2024-02-26T11:04:49;7.93;;;4.15;;
38083;SDS011;23894;51.466;7.444;2024-02-26T11:06:50;8.00;;;4.38;;
38083;SDS011;23894;51.466;7.444;2024-02-26T11:08:51;8.57;;;4.93;;
38083;SDS011;23894;51.466;7.444;2024-02-26T11:10:53;7.72;;;4.65;;
38083;SDS011;23894;51.466;7.444;2024-02-26T11:12:54;7.97;;;4.80;;
38083;SDS011;23894;51.466;7.444;2024-02-26T11:14:56;8.48;;;4.60;;
38083;SDS011;23894;51.466;7.444;2024-02-26T11:16:58;8.23;;;4.82;;
38083;SDS011;23894;51.466;7.444;2024-02-26T11:19:01;7.72;;;4.95;;
38083;SDS011;23894;51.466;7.444;2024-02-26T11:21:02;8.43;;;4.60;;
38083;SDS011;23894;51.466;7.444;2024-02-26T11:23:04;9.63;;;5.27;;
38083;SDS011;23894;51.466;7.444;2024-02-26T11:25:05;8.67;;;4.90;;
38083;SDS011;23894;51.466;7.444;2024-02-26T11:27:07;9.55;;;5.40;;
38083;SDS011;23894;51.466;7.444;2024-02-26T11:29:09;7.50;;;5.07;;
38083;SDS011;23894;51.466;7.444;2024-02-26T11:31:11;9.03;;;5.10;;
38083;SDS011;23894;51.466;7.444;2024-02-26T11:33:13;9.20;;;5.10;;
38083;SDS011;23894;51.466;7.444;2024-02-26T11:35:14;8.32;;;5.18;;
38083;SDS011;23894;51.466;7.444;2024-02-26T11:37:17;10.48;;;5.45;;
38083;SDS011;23894;51.466;7.444;2024-02-26T11:39:18;7.97;;;4.93;;
38083;SDS011;23894;51.466;7.444;2024-02-26T11:41:20;9.05;;;5.15;;
38083;SDS011;23894;51.466;7.444;2024-02-26T11:47:55;8.85;;;5.63;;
38083;SDS011;23894;51.466;7.444;2024-02-26T11:49:56;10.07;;;5.78;;
38083;SDS011;23894;51.466;7.444;2024-02-26T11:51:57;8.85;;;5.13;;
38083;SDS011;23894;51.466;7.444;2024-02-26T11:54:00;11.68;;;5.70;;
38083;SDS011;23894;51.466;7.444;2024-02-26T11:58:18;7.75;;;4.80;;
38083;SDS011;23894;51.466;7.444;2024-02-26T12:00:19;7.18;;;4.40;;
38083;SDS011;23894;51.466;7.444;2024-02-26T12:04:42;8.30;;;4.20;;
38083;SDS011;23894;51.466;7.444;2024-02-26T12:06:52;7.28;;;4.00;;
38083;SDS011;23894;51.466;7.444;2024-02-26T12:08:53;6.63;;;3.80;;
38083;SDS011;23894;51.466;7.444;2024-02-26T12:10:54;7.85;;;3.67;;
38083;SDS011;23894;51.466;7.444;2024-02-26T12:12:59;6.93;;;3.70;;
38083;SDS011;23894;51.466;7.444;2024-02-26T12:15:01;6.97;;;3.85;;
38083;SDS011;23894;51.466;7.444;2024-02-26T12:17:02;7.25;;;3.60;;
38083;SDS011;23894;51.466;7.444;2024-02-26T12:19:07;7.10;;;3.60;;
38083;SDS011;23894;51.466;7.444;2024-02-26T12:21:09;6.80;;;3.85;;